sensor_id;sensor_type;location;lat;lon;timestamp;P1;durP1;ratioP1;P2;durP2;ratioP2
34433;SDS011;34290;48.562;13.384;2022-12-18T00:01:15;70.07;;;19.97;;
34433;SDS011;34290;48.562;13.384;2022-12-18T00:03:44;72.63;;;19.77;;
34433;SDS011;34290;48.562;13.384;2022-12-18T00:06:11;66.80;;;18.17;;
34433;SDS011;34290;48.562;13.384;2022-12-18T00:08:38;62.37;;;18.63;;
34433;SDS011;34290;48.562;13.384;2022-12-18T00:11:08;69.30;;;17.97;;
34433;SDS011;34290;48.562;13.384;2022-12-18T00:13:36;51.20;;;16.83;;
34433;SDS011;34290;48.562;13.384;2022-12-18T00:16:04;55.77;;;16.57;;
34433;SDS011;34290;48.562;13.384;2022-12-18T00:18:33;70.63;;;20.10;;
34433;SDS011;34290;48.562;13.384;2022-12-18T00:21:00;58.43;;;17.33;;
34433;SDS011;34290;48.562;13.384;2022-12-18T00:23:29;58.33;;;17.40;;
34433;SDS011;34290;48.562;13.384;2022-12-18T00:25:58;58.30;;;17.20;;
34433;SDS011;34290;48.562;13.384;2022-12-18T00:28:27;67.27;;;19.10;;
34433;SDS011;34290;48.562;13.384;2022-12-18T00:30:59;55.30;;;16.93;;
34433;SDS011;34290;48.562;13.384;2022-12-18T00:33:26;64.43;;;19.73;;
34433;SDS011;34290;48.562;13.384;2022-12-18T00:35:53;64.30;;;19.57;;
34433;SDS011;34290;48.562;13.384;2022-12-18T00:38:21;73.17;;;20.50;;
34433;SDS011;34290;48.562;13.384;2022-12-18T00:40:47;71.13;;;20.10;;
34433;SDS011;34290;48.562;13.384;2022-12-18T00:43:15;64.43;;;17.00;;
34433;SDS011;34290;48.562;13.384;2022-12-18T00:45:45;61.27;;;18.57;;
34433;SDS011;34290;48.562;13.384;2022-12-18T00:48:12;49.20;;;16.13;;
34433;SDS011;34290;48.562;13.384;2022-12-18T00:50:39;68.67;;;18.23;;
34433;SDS011;34290;48.562;13.384;2022-12-18T00:53:06;69.60;;;19.77;;
34433;SDS011;34290;48.562;13.384;2022-12-18T00:55:39;68.57;;;19.80;;
34433;SDS011;34290;48.562;13.384;2022-12-18T00:58:06;62.73;;;19.80;;
34433;SDS011;34290;48.562;13.384;2022-12-18T01:00:33;79.87;;;20.73;;
34433;SDS011;34290;48.562;13.384;2022-12-18T01:03:02;59.60;;;16.63;;
34433;SDS011;34290;48.562;13.384;2022-12-18T01:05:30;50.50;;;14.93;;
34433;SDS011;34290;48.562;13.384;2022-12-18T01:07:57;47.83;;;15.27;;
34433;SDS011;34290;48.562;13.384;2022-12-18T01:10:24;75.63;;;20.53;;
34433;SDS011;34290;48.562;13.384;2022-12-18T01:12:52;68.97;;;19.93;;
34433;SDS011;34290;48.562;13.384;2022-12-18T01:15:18;72.30;;;20.33;;
34433;SDS011;34290;48.562;13.384;2022-12-18T01:17:46;79.70;;;20.23;;
34433;SDS011;34290;48.562;13.384;2022-12-18T01:20:14;70.90;;;19.23;;
34433;SDS011;34290;48.562;13.384;2022-12-18T01:22:41;75.73;;;21.37;;
34433;SDS011;34290;48.562;13.384;2022-12-18T01:25:08;76.17;;;20.63;;
34433;SDS011;34290;48.562;13.384;2022-12-18T01:27:35;67.67;;;19.37;;
34433;SDS011;34290;48.562;13.384;2022-12-18T01:30:03;75.03;;;19.67;;
34433;SDS011;34290;48.562;13.384;2022-12-18T01:32:32;86.30;;;23.47;;
34433;SDS011;34290;48.562;13.384;2022-12-18T01:35:00;82.63;;;22.50;;
34433;SDS011;34290;48.562;13.384;2022-12-18T01:37:28;79.27;;;20.90;;
34433;SDS011;34290;48.562;13.384;2022-12-18T01:39:55;61.17;;;18.97;;
34433;SDS011;34290;48.562;13.384;2022-12-18T01:42:22;77.97;;;21.30;;
34433;SDS011;34290;48.562;13.384;2022-12-18T01:44:53;87.47;;;23.90;;
34433;SDS011;34290;48.562;13.384;2022-12-18T01:47:26;55.70;;;16.07;;
34433;SDS011;34290;48.562;13.384;2022-12-18T01:49:57;54.30;;;15.97;;
34433;SDS011;34290;48.562;13.384;2022-12-18T01:52:28;63.73;;;18.83;;
34433;SDS011;34290;48.562;13.384;2022-12-18T01:54:56;78.67;;;22.27;;
34433;SDS011;34290;48.562;13.384;2022-12-18T01:57:23;58.57;;;17.63;;
34433;SDS011;34290;48.562;13.384;2022-12-18T01:59:52;59.90;;;17.37;;
34433;SDS011;34290;48.562;13.384;2022-12-18T02:02:22;63.00;;;19.23;;
34433;SDS011;34290;48.562;13.384;2022-12-18T02:04:50;72.47;;;21.63;;
34433;SDS011;34290;48.562;13.384;2022-12-18T02:07:20;62.70;;;17.77;;
34433;SDS011;34290;48.562;13.384;2022-12-18T02:10:00;64.80;;;19.10;;
34433;SDS011;34290;48.562;13.384;2022-12-18T02:12:33;54.00;;;17.13;;
34433;SDS011;34290;48.562;13.384;2022-12-18T02:15:10;67.70;;;17.37;;
34433;SDS011;34290;48.562;13.384;2022-12-18T02:17:43;81.23;;;22.53;;
34433;SDS011;34290;48.562;13.384;2022-12-18T02:20:16;81.10;;;21.47;;
34433;SDS011;34290;48.562;13.384;2022-12-18T02:22:50;75.77;;;22.10;;
34433;SDS011;34290;48.562;13.384;2022-12-18T02:25:42;63.57;;;17.60;;
34433;SDS011;34290;48.562;13.384;2022-12-18T02:28:25;68.17;;;19.80;;
34433;SDS011;34290;48.562;13.384;2022-12-18T02:30:56;86.43;;;22.37;;
34433;SDS011;34290;48.562;13.384;2022-12-18T02:33:27;70.27;;;18.47;;
34433;SDS011;34290;48.562;13.384;2022-12-18T02:35:57;55.83;;;15.37;;
34433;SDS011;34290;48.562;13.384;2022-12-18T02:38:25;70.07;;;20.43;;
34433;SDS011;34290;48.562;13.384;2022-12-18T02:40:54;75.90;;;21.80;;
34433;SDS011;34290;48.562;13.384;2022-12-18T02:43:23;56.13;;;17.53;;
34433;SDS011;34290;48.562;13.384;2022-12-18T02:45:52;71.90;;;18.57;;
34433;SDS011;34290;48.562;13.384;2022-12-18T02:48:22;70.53;;;19.10;;
34433;SDS011;34290;48.562;13.384;2022-12-18T02:50:53;72.23;;;19.83;;
34433;SDS011;34290;48.562;13.384;2022-12-18T02:53:30;77.33;;;21.50;;
34433;SDS011;34290;48.562;13.384;2022-12-18T02:56:05;75.27;;;20.33;;
34433;SDS011;34290;48.562;13.384;2022-12-18T02:58:40;82.80;;;21.27;;
34433;SDS011;34290;48.562;13.384;2022-12-18T03:01:14;69.67;;;20.40;;
34433;SDS011;34290;48.562;13.384;2022-12-18T03:03:46;83.43;;;22.17;;
34433;SDS011;34290;48.562;13.384;2022-12-18T03:06:20;73.90;;;20.30;;
34433;SDS011;34290;48.562;13.384;2022-12-18T03:08:51;87.37;;;21.47;;
34433;SDS011;34290;48.562;13.384;2022-12-18T03:11:25;89.83;;;21.97;;
34433;SDS011;34290;48.562;13.384;2022-12-18T03:14:14;84.80;;;23.10;;
34433;SDS011;34290;48.562;13.384;2022-12-18T03:16:43;88.53;;;21.53;;
34433;SDS011;34290;48.562;13.384;2022-12-18T03:19:13;76.70;;;20.60;;
34433;SDS011;34290;48.562;13.384;2022-12-18T03:21:45;79.37;;;22.90;;
34433;SDS011;34290;48.562;13.384;2022-12-18T03:24:15;75.23;;;21.27;;
34433;SDS011;34290;48.562;13.384;2022-12-18T03:26:47;86.00;;;21.47;;
34433;SDS011;34290;48.562;13.384;2022-12-18T03:29:17;84.33;;;22.53;;
34433;SDS011;34290;48.562;13.384;2022-12-18T03:31:48;89.60;;;24.13;;
34433;SDS011;34290;48.562;13.384;2022-12-18T03:34:21;76.40;;;21.40;;
34433;SDS011;34290;48.562;13.384;2022-12-18T03:36:51;83.43;;;21.17;;
34433;SDS011;34290;48.562;13.384;2022-12-18T03:39:18;88.47;;;22.47;;
34433;SDS011;34290;48.562;13.384;2022-12-18T03:41:48;84.50;;;21.83;;
34433;SDS011;34290;48.562;13.384;2022-12-18T03:44:26;95.93;;;24.47;;
34433;SDS011;34290;48.562;13.384;2022-12-18T03:47:03;97.93;;;25.73;;
34433;SDS011;34290;48.562;13.384;2022-12-18T03:49:34;96.13;;;23.83;;
34433;SDS011;34290;48.562;13.384;2022-12-18T03:52:06;90.07;;;23.57;;
34433;SDS011;34290;48.562;13.384;2022-12-18T03:54:37;87.03;;;22.03;;
34433;SDS011;34290;48.562;13.384;2022-12-18T03:57:09;79.73;;;20.93;;
34433;SDS011;34290;48.562;13.384;2022-12-18T03:59:39;86.17;;;21.63;;
34433;SDS011;34290;48.562;13.384;2022-12-18T04:02:07;103.43;;;23.53;;
34433;SDS011;34290;48.562;13.384;2022-12-18T04:04:36;70.00;;;20.03;;
34433;SDS011;34290;48.562;13.384;2022-12-18T04:07:04;72.17;;;18.63;;
34433;SDS011;34290;48.562;13.384;2022-12-18T04:09:32;62.83;;;20.77;;
34433;SDS011;34290;48.562;13.384;2022-12-18T04:12:01;83.03;;;22.00;;
34433;SDS011;34290;48.562;13.384;2022-12-18T04:14:29;86.73;;;22.63;;
34433;SDS011;34290;48.562;13.384;2022-12-18T04:17:00;82.53;;;23.03;;
34433;SDS011;34290;48.562;13.384;2022-12-18T04:19:27;84.47;;;19.23;;
34433;SDS011;34290;48.562;13.384;2022-12-18T04:21:54;86.57;;;20.70;;
34433;SDS011;34290;48.562;13.384;2022-12-18T04:24:21;84.53;;;22.47;;
34433;SDS011;34290;48.562;13.384;2022-12-18T04:26:48;82.33;;;20.07;;
34433;SDS011;34290;48.562;13.384;2022-12-18T04:29:16;84.63;;;21.90;;
34433;SDS011;34290;48.562;13.384;2022-12-18T04:31:44;77.67;;;22.03;;
34433;SDS011;34290;48.562;13.384;2022-12-18T04:34:11;77.77;;;21.30;;
34433;SDS011;34290;48.562;13.384;2022-12-18T04:36:39;74.43;;;19.47;;
34433;SDS011;34290;48.562;13.384;2022-12-18T04:39:06;99.83;;;22.80;;
34433;SDS011;34290;48.562;13.384;2022-12-18T04:41:33;77.10;;;21.70;;
34433;SDS011;34290;48.562;13.384;2022-12-18T04:44:00;70.77;;;20.83;;
34433;SDS011;34290;48.562;13.384;2022-12-18T04:46:27;44.00;;;14.07;;
34433;SDS011;34290;48.562;13.384;2022-12-18T04:48:56;83.60;;;23.10;;
34433;SDS011;34290;48.562;13.384;2022-12-18T04:51:23;84.60;;;22.30;;
34433;SDS011;34290;48.562;13.384;2022-12-18T04:53:50;83.70;;;20.33;;
34433;SDS011;34290;48.562;13.384;2022-12-18T04:56:17;89.30;;;21.90;;
34433;SDS011;34290;48.562;13.384;2022-12-18T04:58:45;97.50;;;21.30;;
34433;SDS011;34290;48.562;13.384;2022-12-18T05:01:12;82.50;;;20.10;;
34433;SDS011;34290;48.562;13.384;2022-12-18T05:03:41;86.40;;;23.23;;
34433;SDS011;34290;48.562;13.384;2022-12-18T05:06:09;83.07;;;19.73;;
34433;SDS011;34290;48.562;13.384;2022-12-18T05:08:37;80.03;;;19.97;;
34433;SDS011;34290;48.562;13.384;2022-12-18T05:11:05;87.13;;;22.03;;
34433;SDS011;34290;48.562;13.384;2022-12-18T05:13:34;67.17;;;16.57;;
34433;SDS011;34290;48.562;13.384;2022-12-18T05:16:03;67.97;;;19.60;;
34433;SDS011;34290;48.562;13.384;2022-12-18T05:18:32;46.30;;;13.60;;
34433;SDS011;34290;48.562;13.384;2022-12-18T05:21:02;61.17;;;17.33;;
34433;SDS011;34290;48.562;13.384;2022-12-18T05:23:30;75.83;;;19.47;;
34433;SDS011;34290;48.562;13.384;2022-12-18T05:26:02;69.63;;;19.47;;
34433;SDS011;34290;48.562;13.384;2022-12-18T05:28:30;86.60;;;21.07;;
34433;SDS011;34290;48.562;13.384;2022-12-18T05:31:00;74.73;;;20.30;;
34433;SDS011;34290;48.562;13.384;2022-12-18T05:33:29;85.63;;;21.07;;
34433;SDS011;34290;48.562;13.384;2022-12-18T05:35:58;79.63;;;19.80;;
34433;SDS011;34290;48.562;13.384;2022-12-18T05:38:31;80.00;;;19.40;;
34433;SDS011;34290;48.562;13.384;2022-12-18T05:41:01;65.17;;;18.20;;
34433;SDS011;34290;48.562;13.384;2022-12-18T05:43:29;82.73;;;21.47;;
34433;SDS011;34290;48.562;13.384;2022-12-18T05:45:56;74.70;;;20.47;;
34433;SDS011;34290;48.562;13.384;2022-12-18T05:48:25;75.27;;;18.33;;
34433;SDS011;34290;48.562;13.384;2022-12-18T05:50:52;49.87;;;14.33;;
34433;SDS011;34290;48.562;13.384;2022-12-18T05:53:20;61.07;;;16.47;;
34433;SDS011;34290;48.562;13.384;2022-12-18T05:55:48;35.63;;;11.27;;
34433;SDS011;34290;48.562;13.384;2022-12-18T05:58:15;71.43;;;17.60;;
34433;SDS011;34290;48.562;13.384;2022-12-18T06:00:43;59.10;;;16.13;;
34433;SDS011;34290;48.562;13.384;2022-12-18T06:03:14;57.17;;;17.60;;
34433;SDS011;34290;48.562;13.384;2022-12-18T06:05:42;68.67;;;18.43;;
34433;SDS011;34290;48.562;13.384;2022-12-18T06:08:10;77.30;;;18.87;;
34433;SDS011;34290;48.562;13.384;2022-12-18T06:10:38;77.77;;;17.90;;
34433;SDS011;34290;48.562;13.384;2022-12-18T06:13:07;92.87;;;21.00;;
34433;SDS011;34290;48.562;13.384;2022-12-18T06:15:35;77.33;;;20.70;;
34433;SDS011;34290;48.562;13.384;2022-12-18T06:18:03;85.67;;;20.17;;
34433;SDS011;34290;48.562;13.384;2022-12-18T06:20:30;66.10;;;18.57;;
34433;SDS011;34290;48.562;13.384;2022-12-18T06:22:59;65.67;;;18.93;;
34433;SDS011;34290;48.562;13.384;2022-12-18T06:25:26;76.10;;;20.03;;
34433;SDS011;34290;48.562;13.384;2022-12-18T06:27:54;74.57;;;19.50;;
34433;SDS011;34290;48.562;13.384;2022-12-18T06:30:22;85.63;;;20.93;;
34433;SDS011;34290;48.562;13.384;2022-12-18T06:32:49;74.90;;;18.30;;
34433;SDS011;34290;48.562;13.384;2022-12-18T06:35:16;64.13;;;16.37;;
34433;SDS011;34290;48.562;13.384;2022-12-18T06:37:44;74.10;;;18.27;;
34433;SDS011;34290;48.562;13.384;2022-12-18T06:40:13;71.87;;;18.57;;
34433;SDS011;34290;48.562;13.384;2022-12-18T06:42:40;74.40;;;19.30;;
34433;SDS011;34290;48.562;13.384;2022-12-18T06:45:08;61.27;;;16.50;;
34433;SDS011;34290;48.562;13.384;2022-12-18T06:47:37;66.33;;;18.33;;
34433;SDS011;34290;48.562;13.384;2022-12-18T06:50:05;68.50;;;19.13;;
34433;SDS011;34290;48.562;13.384;2022-12-18T06:52:32;66.17;;;18.47;;
34433;SDS011;34290;48.562;13.384;2022-12-18T06:54:59;75.87;;;19.50;;
34433;SDS011;34290;48.562;13.384;2022-12-18T06:57:27;56.83;;;16.03;;
34433;SDS011;34290;48.562;13.384;2022-12-18T06:59:54;68.00;;;18.13;;
34433;SDS011;34290;48.562;13.384;2022-12-18T07:02:21;63.43;;;18.73;;
34433;SDS011;34290;48.562;13.384;2022-12-18T07:04:54;72.33;;;18.10;;
34433;SDS011;34290;48.562;13.384;2022-12-18T07:07:22;69.40;;;18.13;;
34433;SDS011;34290;48.562;13.384;2022-12-18T07:09:52;59.43;;;16.60;;
34433;SDS011;34290;48.562;13.384;2022-12-18T07:12:19;73.23;;;17.20;;
34433;SDS011;34290;48.562;13.384;2022-12-18T07:14:46;69.03;;;17.27;;
34433;SDS011;34290;48.562;13.384;2022-12-18T07:17:13;63.87;;;17.73;;
34433;SDS011;34290;48.562;13.384;2022-12-18T07:19:41;64.23;;;17.03;;
34433;SDS011;34290;48.562;13.384;2022-12-18T07:22:09;69.60;;;18.93;;
34433;SDS011;34290;48.562;13.384;2022-12-18T07:24:36;69.67;;;18.47;;
34433;SDS011;34290;48.562;13.384;2022-12-18T07:27:03;58.13;;;17.33;;
34433;SDS011;34290;48.562;13.384;2022-12-18T07:29:30;68.90;;;17.43;;
34433;SDS011;34290;48.562;13.384;2022-12-18T07:31:57;62.13;;;17.63;;
34433;SDS011;34290;48.562;13.384;2022-12-18T07:34:24;71.63;;;18.87;;
34433;SDS011;34290;48.562;13.384;2022-12-18T07:36:51;66.40;;;18.07;;
34433;SDS011;34290;48.562;13.384;2022-12-18T07:39:19;69.73;;;18.00;;
34433;SDS011;34290;48.562;13.384;2022-12-18T07:41:46;73.00;;;17.73;;
34433;SDS011;34290;48.562;13.384;2022-12-18T07:44:33;81.47;;;18.87;;
34433;SDS011;34290;48.562;13.384;2022-12-18T07:47:00;63.63;;;17.17;;
34433;SDS011;34290;48.562;13.384;2022-12-18T07:49:27;83.00;;;21.57;;
34433;SDS011;34290;48.562;13.384;2022-12-18T07:51:54;70.07;;;18.83;;
34433;SDS011;34290;48.562;13.384;2022-12-18T07:54:23;70.23;;;17.73;;
34433;SDS011;34290;48.562;13.384;2022-12-18T07:56:50;78.17;;;18.60;;
34433;SDS011;34290;48.562;13.384;2022-12-18T07:59:18;67.43;;;17.77;;
34433;SDS011;34290;48.562;13.384;2022-12-18T08:01:45;62.03;;;18.60;;
34433;SDS011;34290;48.562;13.384;2022-12-18T08:04:12;60.97;;;17.30;;
34433;SDS011;34290;48.562;13.384;2022-12-18T08:06:39;48.73;;;13.90;;
34433;SDS011;34290;48.562;13.384;2022-12-18T08:09:06;68.53;;;16.77;;
34433;SDS011;34290;48.562;13.384;2022-12-18T08:11:35;78.03;;;18.67;;
34433;SDS011;34290;48.562;13.384;2022-12-18T08:14:02;75.60;;;19.27;;
34433;SDS011;34290;48.562;13.384;2022-12-18T08:16:29;75.03;;;18.47;;
34433;SDS011;34290;48.562;13.384;2022-12-18T08:18:56;66.00;;;17.80;;
34433;SDS011;34290;48.562;13.384;2022-12-18T08:21:24;69.20;;;18.87;;
34433;SDS011;34290;48.562;13.384;2022-12-18T08:23:53;83.33;;;18.53;;
34433;SDS011;34290;48.562;13.384;2022-12-18T08:26:21;66.23;;;17.53;;
34433;SDS011;34290;48.562;13.384;2022-12-18T08:28:51;64.23;;;18.53;;
34433;SDS011;34290;48.562;13.384;2022-12-18T08:31:20;72.33;;;18.53;;
34433;SDS011;34290;48.562;13.384;2022-12-18T08:33:48;57.77;;;15.63;;
34433;SDS011;34290;48.562;13.384;2022-12-18T08:36:15;70.73;;;18.23;;
34433;SDS011;34290;48.562;13.384;2022-12-18T08:38:43;69.37;;;19.40;;
34433;SDS011;34290;48.562;13.384;2022-12-18T08:41:11;59.00;;;18.20;;
34433;SDS011;34290;48.562;13.384;2022-12-18T08:43:39;69.17;;;19.57;;
34433;SDS011;34290;48.562;13.384;2022-12-18T08:46:27;62.37;;;17.53;;
34433;SDS011;34290;48.562;13.384;2022-12-18T08:48:58;79.70;;;20.43;;
34433;SDS011;34290;48.562;13.384;2022-12-18T08:51:25;53.03;;;14.50;;
34433;SDS011;34290;48.562;13.384;2022-12-18T08:53:52;63.13;;;17.70;;
34433;SDS011;34290;48.562;13.384;2022-12-18T08:56:19;85.93;;;20.17;;
34433;SDS011;34290;48.562;13.384;2022-12-18T08:58:46;70.47;;;18.60;;
34433;SDS011;34290;48.562;13.384;2022-12-18T09:01:13;64.77;;;17.63;;
34433;SDS011;34290;48.562;13.384;2022-12-18T09:03:42;69.43;;;18.50;;
34433;SDS011;34290;48.562;13.384;2022-12-18T09:06:13;73.63;;;20.87;;
34433;SDS011;34290;48.562;13.384;2022-12-18T09:08:40;90.03;;;21.67;;
34433;SDS011;34290;48.562;13.384;2022-12-18T09:11:10;68.40;;;21.07;;
34433;SDS011;34290;48.562;13.384;2022-12-18T09:13:40;66.30;;;19.10;;
34433;SDS011;34290;48.562;13.384;2022-12-18T09:16:10;65.43;;;18.63;;
34433;SDS011;34290;48.562;13.384;2022-12-18T09:18:37;71.93;;;18.90;;
34433;SDS011;34290;48.562;13.384;2022-12-18T09:21:09;70.90;;;18.63;;
34433;SDS011;34290;48.562;13.384;2022-12-18T09:23:37;59.17;;;18.33;;
34433;SDS011;34290;48.562;13.384;2022-12-18T09:26:04;65.97;;;19.80;;
34433;SDS011;34290;48.562;13.384;2022-12-18T09:28:31;65.43;;;19.47;;
34433;SDS011;34290;48.562;13.384;2022-12-18T09:30:58;66.60;;;17.93;;
34433;SDS011;34290;48.562;13.384;2022-12-18T09:33:26;70.63;;;19.50;;
34433;SDS011;34290;48.562;13.384;2022-12-18T09:35:52;67.43;;;20.17;;
34433;SDS011;34290;48.562;13.384;2022-12-18T09:38:21;67.03;;;20.07;;
34433;SDS011;34290;48.562;13.384;2022-12-18T09:40:49;68.97;;;19.47;;
34433;SDS011;34290;48.562;13.384;2022-12-18T09:43:20;69.30;;;20.13;;
34433;SDS011;34290;48.562;13.384;2022-12-18T09:45:53;69.70;;;20.03;;
34433;SDS011;34290;48.562;13.384;2022-12-18T09:48:26;64.57;;;19.37;;
34433;SDS011;34290;48.562;13.384;2022-12-18T09:50:56;68.97;;;20.20;;
34433;SDS011;34290;48.562;13.384;2022-12-18T09:53:30;70.23;;;21.23;;
34433;SDS011;34290;48.562;13.384;2022-12-18T09:56:01;65.87;;;19.43;;
34433;SDS011;34290;48.562;13.384;2022-12-18T09:58:31;61.03;;;19.03;;
34433;SDS011;34290;48.562;13.384;2022-12-18T10:01:08;65.83;;;20.07;;
34433;SDS011;34290;48.562;13.384;2022-12-18T10:03:36;62.27;;;19.53;;
34433;SDS011;34290;48.562;13.384;2022-12-18T10:06:06;69.77;;;19.97;;
34433;SDS011;34290;48.562;13.384;2022-12-18T10:08:42;69.23;;;19.60;;
34433;SDS011;34290;48.562;13.384;2022-12-18T10:11:28;75.90;;;21.07;;
34433;SDS011;34290;48.562;13.384;2022-12-18T10:14:05;64.00;;;18.77;;
34433;SDS011;34290;48.562;13.384;2022-12-18T10:16:40;75.50;;;19.80;;
34433;SDS011;34290;48.562;13.384;2022-12-18T10:19:29;68.33;;;20.07;;
34433;SDS011;34290;48.562;13.384;2022-12-18T10:22:10;69.40;;;18.47;;
34433;SDS011;34290;48.562;13.384;2022-12-18T10:24:47;65.93;;;18.33;;
34433;SDS011;34290;48.562;13.384;2022-12-18T10:27:21;66.23;;;19.57;;
34433;SDS011;34290;48.562;13.384;2022-12-18T10:29:50;65.90;;;19.13;;
34433;SDS011;34290;48.562;13.384;2022-12-18T10:32:20;64.63;;;19.33;;
34433;SDS011;34290;48.562;13.384;2022-12-18T10:34:52;61.30;;;18.07;;
34433;SDS011;34290;48.562;13.384;2022-12-18T10:37:21;66.67;;;19.37;;
34433;SDS011;34290;48.562;13.384;2022-12-18T10:40:06;70.00;;;19.87;;
34433;SDS011;34290;48.562;13.384;2022-12-18T10:42:35;65.70;;;19.63;;
34433;SDS011;34290;48.562;13.384;2022-12-18T10:45:03;74.00;;;21.20;;
34433;SDS011;34290;48.562;13.384;2022-12-18T10:47:41;60.70;;;19.13;;
34433;SDS011;34290;48.562;13.384;2022-12-18T10:50:15;60.33;;;19.43;;
34433;SDS011;34290;48.562;13.384;2022-12-18T10:52:52;68.03;;;21.30;;
34433;SDS011;34290;48.562;13.384;2022-12-18T10:55:22;69.93;;;20.10;;
34433;SDS011;34290;48.562;13.384;2022-12-18T10:57:54;64.40;;;21.20;;
34433;SDS011;34290;48.562;13.384;2022-12-18T11:00:25;70.83;;;20.90;;
34433;SDS011;34290;48.562;13.384;2022-12-18T11:02:56;69.30;;;19.93;;
34433;SDS011;34290;48.562;13.384;2022-12-18T11:05:27;69.37;;;20.53;;
34433;SDS011;34290;48.562;13.384;2022-12-18T11:07:55;63.13;;;19.37;;
34433;SDS011;34290;48.562;13.384;2022-12-18T11:10:28;62.37;;;18.40;;
34433;SDS011;34290;48.562;13.384;2022-12-18T11:13:08;62.90;;;19.73;;
34433;SDS011;34290;48.562;13.384;2022-12-18T11:15:42;64.07;;;20.40;;
34433;SDS011;34290;48.562;13.384;2022-12-18T11:18:16;63.13;;;18.73;;
34433;SDS011;34290;48.562;13.384;2022-12-18T11:20:49;67.93;;;20.50;;
34433;SDS011;34290;48.562;13.384;2022-12-18T11:23:19;61.87;;;20.20;;
34433;SDS011;34290;48.562;13.384;2022-12-18T11:25:59;67.07;;;20.37;;
34433;SDS011;34290;48.562;13.384;2022-12-18T11:28:29;71.40;;;21.27;;
34433;SDS011;34290;48.562;13.384;2022-12-18T11:31:15;68.50;;;19.13;;
34433;SDS011;34290;48.562;13.384;2022-12-18T11:33:49;66.20;;;20.93;;
34433;SDS011;34290;48.562;13.384;2022-12-18T11:36:30;68.30;;;21.03;;
34433;SDS011;34290;48.562;13.384;2022-12-18T11:39:02;65.33;;;19.60;;
34433;SDS011;34290;48.562;13.384;2022-12-18T11:41:39;68.43;;;20.97;;
34433;SDS011;34290;48.562;13.384;2022-12-18T11:44:32;70.40;;;20.00;;
34433;SDS011;34290;48.562;13.384;2022-12-18T11:47:09;57.07;;;19.57;;
34433;SDS011;34290;48.562;13.384;2022-12-18T11:49:41;66.83;;;19.60;;
34433;SDS011;34290;48.562;13.384;2022-12-18T11:52:14;60.67;;;18.80;;
34433;SDS011;34290;48.562;13.384;2022-12-18T11:54:44;66.90;;;20.63;;
34433;SDS011;34290;48.562;13.384;2022-12-18T11:57:16;58.90;;;19.37;;
34433;SDS011;34290;48.562;13.384;2022-12-18T12:00:01;62.53;;;19.97;;
34433;SDS011;34290;48.562;13.384;2022-12-18T12:02:40;54.13;;;18.63;;
34433;SDS011;34290;48.562;13.384;2022-12-18T12:05:22;60.07;;;22.33;;
34433;SDS011;34290;48.562;13.384;2022-12-18T12:08:01;58.20;;;18.73;;
34433;SDS011;34290;48.562;13.384;2022-12-18T12:10:37;61.60;;;18.93;;
34433;SDS011;34290;48.562;13.384;2022-12-18T12:13:23;65.80;;;20.60;;
34433;SDS011;34290;48.562;13.384;2022-12-18T12:16:00;58.27;;;19.47;;
34433;SDS011;34290;48.562;13.384;2022-12-18T12:18:40;61.00;;;19.80;;
34433;SDS011;34290;48.562;13.384;2022-12-18T12:21:19;51.73;;;19.30;;
34433;SDS011;34290;48.562;13.384;2022-12-18T12:23:55;60.60;;;20.43;;
34433;SDS011;34290;48.562;13.384;2022-12-18T12:26:33;58.90;;;18.83;;
34433;SDS011;34290;48.562;13.384;2022-12-18T12:29:09;55.20;;;18.53;;
34433;SDS011;34290;48.562;13.384;2022-12-18T12:31:54;49.27;;;17.73;;
34433;SDS011;34290;48.562;13.384;2022-12-18T12:34:34;43.53;;;15.70;;
34433;SDS011;34290;48.562;13.384;2022-12-18T12:37:14;56.70;;;20.23;;
34433;SDS011;34290;48.562;13.384;2022-12-18T12:39:48;55.27;;;19.60;;
34433;SDS011;34290;48.562;13.384;2022-12-18T12:42:20;44.07;;;15.93;;
34433;SDS011;34290;48.562;13.384;2022-12-18T12:45:16;52.60;;;16.07;;
34433;SDS011;34290;48.562;13.384;2022-12-18T12:47:46;45.90;;;15.40;;
34433;SDS011;34290;48.562;13.384;2022-12-18T12:50:20;41.83;;;15.03;;
34433;SDS011;34290;48.562;13.384;2022-12-18T12:52:49;48.07;;;16.07;;
34433;SDS011;34290;48.562;13.384;2022-12-18T12:55:20;41.90;;;15.93;;
34433;SDS011;34290;48.562;13.384;2022-12-18T12:57:51;41.03;;;15.07;;
34433;SDS011;34290;48.562;13.384;2022-12-18T13:00:25;41.67;;;14.63;;
34433;SDS011;34290;48.562;13.384;2022-12-18T13:03:03;37.10;;;14.73;;
34433;SDS011;34290;48.562;13.384;2022-12-18T13:05:39;42.50;;;14.43;;
34433;SDS011;34290;48.562;13.384;2022-12-18T13:08:12;41.50;;;14.47;;
34433;SDS011;34290;48.562;13.384;2022-12-18T13:10:49;40.23;;;15.43;;
34433;SDS011;34290;48.562;13.384;2022-12-18T13:13:47;42.00;;;16.07;;
34433;SDS011;34290;48.562;13.384;2022-12-18T13:16:16;39.83;;;14.57;;
34433;SDS011;34290;48.562;13.384;2022-12-18T13:18:48;41.23;;;14.47;;
34433;SDS011;34290;48.562;13.384;2022-12-18T13:21:18;40.67;;;14.97;;
34433;SDS011;34290;48.562;13.384;2022-12-18T13:23:49;36.53;;;13.37;;
34433;SDS011;34290;48.562;13.384;2022-12-18T13:29:04;41.37;;;14.57;;
34433;SDS011;34290;48.562;13.384;2022-12-18T13:34:26;41.47;;;15.70;;
34433;SDS011;34290;48.562;13.384;2022-12-18T13:36:54;40.63;;;15.00;;
34433;SDS011;34290;48.562;13.384;2022-12-18T13:39:33;42.73;;;14.77;;
34433;SDS011;34290;48.562;13.384;2022-12-18T13:48:30;46.23;;;15.83;;
34433;SDS011;34290;48.562;13.384;2022-12-18T13:51:01;49.47;;;16.17;;
34433;SDS011;34290;48.562;13.384;2022-12-18T13:53:33;45.93;;;15.47;;
34433;SDS011;34290;48.562;13.384;2022-12-18T13:56:04;44.07;;;15.80;;
34433;SDS011;34290;48.562;13.384;2022-12-18T13:58:33;53.67;;;16.57;;
34433;SDS011;34290;48.562;13.384;2022-12-18T14:01:03;43.63;;;15.83;;
34433;SDS011;34290;48.562;13.384;2022-12-18T14:03:32;48.57;;;15.87;;
34433;SDS011;34290;48.562;13.384;2022-12-18T14:06:00;50.73;;;17.83;;
34433;SDS011;34290;48.562;13.384;2022-12-18T14:08:33;52.00;;;17.13;;
34433;SDS011;34290;48.562;13.384;2022-12-18T14:11:03;43.40;;;16.37;;
34433;SDS011;34290;48.562;13.384;2022-12-18T14:13:32;49.90;;;17.63;;
34433;SDS011;34290;48.562;13.384;2022-12-18T14:16:03;49.60;;;16.83;;
34433;SDS011;34290;48.562;13.384;2022-12-18T14:18:41;49.73;;;16.50;;
34433;SDS011;34290;48.562;13.384;2022-12-18T14:21:17;44.03;;;16.00;;
34433;SDS011;34290;48.562;13.384;2022-12-18T14:23:46;48.83;;;16.60;;
34433;SDS011;34290;48.562;13.384;2022-12-18T14:26:20;48.63;;;16.33;;
34433;SDS011;34290;48.562;13.384;2022-12-18T14:28:52;45.90;;;17.00;;
34433;SDS011;34290;48.562;13.384;2022-12-18T14:31:21;43.33;;;15.67;;
34433;SDS011;34290;48.562;13.384;2022-12-18T14:33:51;44.47;;;16.67;;
34433;SDS011;34290;48.562;13.384;2022-12-18T14:36:19;45.37;;;15.57;;
34433;SDS011;34290;48.562;13.384;2022-12-18T14:38:48;48.03;;;15.67;;
34433;SDS011;34290;48.562;13.384;2022-12-18T14:41:17;44.67;;;15.57;;